Rancho Santa Fe, California
Current Conditions -  °F | °C
As of 9:53 AM on Thursday 23 Oct 2014 (Local Time) from KCRQ Reporting Station
Clear Clear  
Wind Chill: 72°   Ceiling: Unl
Heat Index: 72°   Visibility: 10mi
Dew Point: 50°   Wind: 0mph
Humidity: 46%   Direction: NA
Pressure: 29.99"   Gusts: NA
Location:  33.02°N, 117.2°W
Report Text: KCRQ 231653Z 00000KT 10SM CLR 22/10 A2999 RMK AO2 SLP152 T02220100
Loading
Personal Weather Stations






























Interactive Weather Map
Tropical Storm Tracking
New forecast layout! Learn more

10-Day Weather Forecast

Advertisements
Track Severe Weather on mobile